createdAt,value
2019-02-27T00:02:31.757Z,6.22
2019-02-27T00:05:33.551Z,6.20
2019-02-27T00:08:35.407Z,5.12
2019-02-27T00:11:36.851Z,5.55
2019-02-27T00:14:38.307Z,5.42
2019-02-27T00:17:39.892Z,4.08
2019-02-27T00:20:41.331Z,5.45
2019-02-27T00:23:42.831Z,4.22
2019-02-27T00:26:44.217Z,5.08
2019-02-27T00:29:45.643Z,5.53
2019-02-27T00:32:51.026Z,5.25
2019-02-27T00:35:50.938Z,5.95
2019-02-27T00:38:52.402Z,5.60
2019-02-27T00:41:53.911Z,6.55
2019-02-27T00:44:56.049Z,5.25
2019-02-27T00:47:57.549Z,4.47
2019-02-27T00:50:58.977Z,4.78
2019-02-27T00:54:00.400Z,5.53
2019-02-27T00:57:01.877Z,4.75
2019-02-27T01:00:06.275Z,6.35
2019-02-27T01:03:07.128Z,3.87
2019-02-27T01:06:08.977Z,6.05
2019-02-27T01:09:10.939Z,5.28
2019-02-27T01:12:13.731Z,5.92
2019-02-27T01:15:15.599Z,4.47
2019-02-27T01:18:17.008Z,4.55
2019-02-27T01:21:19.945Z,6.33
2019-02-27T01:24:21.482Z,5.08
2019-02-27T01:27:23.928Z,6.10
2019-02-27T01:30:25.393Z,4.80
2019-02-27T01:33:26.787Z,6.45
2019-02-27T01:36:28.181Z,5.30
2019-02-27T01:39:29.608Z,5.37
2019-02-27T01:42:32.854Z,4.90
2019-02-27T01:45:34.359Z,4.65
2019-02-27T01:48:35.865Z,4.30
2019-02-27T01:51:38.680Z,4.95
2019-02-27T01:54:40.467Z,3.60
2019-02-27T01:57:41.862Z,4.35
2019-02-27T02:00:43.335Z,3.95
2019-02-27T02:03:47.265Z,4.53
2019-02-27T02:06:48.033Z,4.22
2019-02-27T02:09:55.049Z,5.05
2019-02-27T02:13:15.169Z,4.83
2019-02-27T02:17:11.276Z,4.58
2019-02-27T02:21:01.817Z,4.20
2019-02-27T02:24:47.071Z,4.15
2019-02-27T02:28:40.991Z,4.53
2019-02-27T02:32:18.272Z,4.40
2019-02-27T02:36:11.221Z,4.60
2019-02-27T02:40:30.814Z,4.17
2019-02-27T02:44:34.484Z,4.08
2019-02-27T02:48:50.704Z,4.72
2019-02-27T02:52:31.613Z,5.40
2019-02-27T02:56:51.703Z,5.22
2019-02-27T03:00:47.909Z,4.97
2019-02-27T03:05:23.333Z,3.58
2019-02-27T03:09:22.074Z,4.85
2019-02-27T03:13:25.478Z,3.80
2019-02-27T03:17:18.426Z,4.10
2019-02-27T03:20:45.420Z,4.05
2019-02-27T03:24:36.300Z,5.58
2019-02-27T03:28:40.668Z,5.10
2019-02-27T03:32:06.897Z,5.00
2019-02-27T03:35:56.397Z,4.20
2019-02-27T03:39:34.334Z,5.33
2019-02-27T03:43:29.804Z,4.37
2019-02-27T03:47:52.965Z,3.62
2019-02-27T03:51:46.705Z,4.72
2019-02-27T03:55:32.845Z,3.87
2019-02-27T03:59:42.146Z,4.15
2019-02-27T04:03:33.953Z,4.42
2019-02-27T04:07:35.661Z,5.17
2019-02-27T04:10:37.053Z,5.50
2019-02-27T04:13:38.425Z,4.78
2019-02-27T04:16:39.877Z,4.50
2019-02-27T04:19:41.318Z,7.13
2019-02-27T04:22:42.705Z,4.95
2019-02-27T04:25:44.115Z,4.30
2019-02-27T04:28:45.450Z,5.00
2019-02-27T04:31:46.980Z,4.87
2019-02-27T04:34:48.720Z,5.53
2019-02-27T04:37:54.119Z,3.75
2019-02-27T04:40:53.860Z,4.40
2019-02-27T04:43:55.306Z,4.25
2019-02-27T04:46:56.683Z,4.67
2019-02-27T04:49:58.134Z,3.50
2019-02-27T04:52:59.586Z,3.35
2019-02-27T04:56:00.974Z,4.17
2019-02-27T04:59:02.339Z,4.03
2019-02-27T05:02:04.502Z,4.08
2019-02-27T05:05:08.598Z,4.08
2019-02-27T05:08:10.206Z,4.17
2019-02-27T05:11:13.943Z,3.37
2019-02-27T05:14:15.326Z,3.53
2019-02-27T05:17:21.193Z,5.50
2019-02-27T05:20:19.806Z,3.33
2019-02-27T05:23:21.270Z,3.43
2019-02-27T05:26:27.092Z,5.30
2019-02-27T05:29:26.069Z,4.08
2019-02-27T05:32:28.258Z,4.37
2019-02-27T05:35:30.766Z,5.83
2019-02-27T05:38:32.163Z,3.43
2019-02-27T05:41:33.774Z,3.60
2019-02-27T05:44:35.150Z,4.37
2019-02-27T05:47:36.683Z,3.87
2019-02-27T05:50:38.160Z,3.50
2019-02-27T05:53:39.501Z,4.90
2019-02-27T05:56:40.866Z,3.63
2019-02-27T05:59:42.300Z,4.33
2019-02-27T06:02:45.008Z,4.75
2019-02-27T06:05:49.634Z,3.83
2019-02-27T06:08:50.227Z,4.07
2019-02-27T06:11:51.586Z,4.53
2019-02-27T06:14:54.992Z,3.37
2019-02-27T06:17:56.704Z,3.83
2019-02-27T06:20:58.943Z,3.33
2019-02-27T06:24:00.510Z,4.37
2019-02-27T06:27:06.097Z,4.10
2019-02-27T06:30:05.946Z,5.40
2019-02-27T06:33:11.590Z,3.30
2019-02-27T06:36:11.516Z,3.77
2019-02-27T06:39:13.026Z,3.10
2019-02-27T06:42:14.535Z,4.60
2019-02-27T06:45:18.341Z,4.50
2019-02-27T06:48:19.738Z,3.90
2019-02-27T06:51:21.600Z,4.20
2019-02-27T06:54:22.957Z,4.55
2019-02-27T06:57:24.451Z,3.30
2019-02-27T07:00:25.946Z,4.97
2019-02-27T07:03:29.559Z,3.23
2019-02-27T07:06:30.587Z,3.83
2019-02-27T07:09:32.016Z,3.98
2019-02-27T07:12:33.401Z,4.83
2019-02-27T07:15:34.824Z,3.80
2019-02-27T07:18:36.533Z,4.57
2019-02-27T07:21:38.074Z,4.33
2019-02-27T07:24:39.863Z,3.57
2019-02-27T07:27:41.328Z,3.23
2019-02-27T07:30:43.277Z,5.10
2019-02-27T07:33:45.127Z,4.53
2019-02-27T07:36:46.588Z,3.37
2019-02-27T07:39:48.011Z,3.97
2019-02-27T07:42:49.394Z,4.57
2019-02-27T07:45:50.829Z,3.30
2019-02-27T07:48:56.451Z,3.55
2019-02-27T07:51:57.916Z,3.37
2019-02-27T07:54:58.884Z,4.10
2019-02-27T07:58:00.380Z,3.55
2019-02-27T08:01:01.919Z,3.05
2019-02-27T08:04:04.434Z,3.57
2019-02-27T08:07:05.842Z,3.67
2019-02-27T08:10:10.770Z,4.25
2019-02-27T08:13:12.158Z,3.87
2019-02-27T08:16:13.566Z,3.17
2019-02-27T08:19:15.136Z,3.27
2019-02-27T08:22:16.635Z,3.50
2019-02-27T08:25:18.115Z,3.37
2019-02-27T08:28:19.619Z,4.22
2019-02-27T08:31:21.068Z,4.53
2019-02-27T08:34:22.471Z,3.17
2019-02-27T08:37:23.986Z,4.05
2019-02-27T08:40:25.419Z,7.25
2019-02-27T08:43:26.853Z,5.05
2019-02-27T08:46:28.341Z,5.33
2019-02-27T08:49:31.808Z,9.30
2019-02-27T08:52:33.553Z,7.20
2019-02-27T08:55:39.057Z,6.20
2019-02-27T08:58:41.182Z,5.72
2019-02-27T09:01:43.927Z,6.10
2019-02-27T09:04:47.055Z,7.12
2019-02-27T09:07:50.446Z,5.47
2019-02-27T09:10:53.488Z,6.42
2019-02-27T09:14:01.959Z,8.68
2019-02-27T09:17:00.528Z,6.60
2019-02-27T09:20:02.225Z,6.58
2019-02-27T09:23:04.250Z,7.90
2019-02-27T09:26:05.756Z,8.38
2019-02-27T09:29:07.118Z,7.35
2019-02-27T09:32:11.402Z,8.73
2019-02-27T09:35:13.046Z,6.72
2019-02-27T09:38:14.696Z,7.28
2019-02-27T09:41:16.563Z,10.55
2019-02-27T09:44:18.348Z,7.00
2019-02-27T09:47:20.068Z,6.30
2019-02-27T09:50:34.879Z,7.67
2019-02-27T09:53:37.440Z,8.75
2019-02-27T09:56:39.170Z,8.18
2019-02-27T09:59:40.751Z,8.85
2019-02-27T10:02:43.192Z,9.43
2019-02-27T10:05:45.475Z,8.08
2019-02-27T10:08:46.995Z,10.50
2019-02-27T10:11:48.518Z,6.85
2019-02-27T10:14:50.274Z,7.67
2019-02-27T10:17:52.805Z,9.55
2019-02-27T10:20:54.292Z,10.60
2019-02-27T10:23:55.727Z,7.80
2019-02-27T10:26:57.159Z,8.25
2019-02-27T10:29:58.774Z,11.22
2019-02-27T10:33:00.233Z,7.28
2019-02-27T10:36:03.647Z,9.98
2019-02-27T10:39:06.588Z,10.53
2019-02-27T10:42:10.118Z,7.35
2019-02-27T10:45:14.903Z,6.95
2019-02-27T10:48:16.855Z,12.50
2019-02-27T10:51:18.515Z,11.83
2019-02-27T10:54:20.073Z,17.98
2019-02-27T10:57:23.205Z,23.07
2019-02-27T11:00:29.809Z,28.32
2019-02-27T11:03:31.628Z,35.05
2019-02-27T11:06:34.244Z,42.90
2019-02-27T11:09:41.207Z,47.25
2019-02-27T11:12:41.902Z,57.90
2019-02-27T11:15:44.817Z,56.58
2019-02-27T11:18:46.964Z,41.85
2019-02-27T11:21:49.641Z,32.28
2019-02-27T11:24:52.500Z,24.50
2019-02-27T11:27:55.892Z,25.37
2019-02-27T11:30:59.619Z,31.33
2019-02-27T11:34:01.246Z,43.45
2019-02-27T11:37:04.408Z,47.58
2019-02-27T11:40:07.887Z,35.40
2019-02-27T11:43:09.907Z,29.75
2019-02-27T11:46:11.860Z,29.37
2019-02-27T11:49:13.531Z,43.80
2019-02-27T11:52:15.010Z,36.03
2019-02-27T11:55:17.398Z,32.78
2019-02-27T11:58:19.475Z,40.45
2019-02-27T12:01:22.740Z,41.55
2019-02-27T12:04:24.342Z,37.78
2019-02-27T12:07:25.951Z,39.92
2019-02-27T12:10:30.702Z,41.65
2019-02-27T12:13:32.366Z,37.38
2019-02-27T12:16:35.532Z,46.98
2019-02-27T12:19:37.151Z,45.23
2019-02-27T12:22:38.731Z,34.90
2019-02-27T12:25:40.309Z,37.45
2019-02-27T12:28:42.050Z,33.35
2019-02-27T12:31:48.177Z,33.38
2019-02-27T12:34:48.352Z,37.85
2019-02-27T12:37:50.217Z,36.95
2019-02-27T12:40:52.903Z,34.43
2019-02-27T12:43:54.433Z,22.32
2019-02-27T12:46:56.147Z,18.25
2019-02-27T12:49:57.900Z,16.93
2019-02-27T12:53:01.332Z,16.27
2019-02-27T12:56:07.812Z,17.02
2019-02-27T12:59:08.985Z,17.00
2019-02-27T13:02:10.927Z,14.98
2019-02-27T13:05:14.200Z,14.63
2019-02-27T13:08:16.312Z,19.37
2019-02-27T13:11:22.825Z,19.10
2019-02-27T13:14:24.420Z,18.07
2019-02-27T13:17:26.206Z,20.02
2019-02-27T13:20:28.518Z,15.28
2019-02-27T13:23:30.048Z,18.25
2019-02-27T13:26:34.752Z,18.67
2019-02-27T13:29:35.251Z,16.12
2019-02-27T13:32:38.516Z,18.60
2019-02-27T13:35:40.329Z,16.05
2019-02-27T13:38:41.946Z,17.62
2019-02-27T13:41:45.543Z,17.40
2019-02-27T13:44:46.687Z,17.17
2019-02-27T13:47:48.260Z,18.10
2019-02-27T13:50:49.861Z,18.90
2019-02-27T13:53:51.372Z,16.02
2019-02-27T13:56:53.254Z,17.90
2019-02-27T13:59:55.829Z,20.08
2019-02-27T14:02:57.415Z,21.80
2019-02-27T14:05:59.008Z,17.73
2019-02-27T14:09:00.666Z,16.80
2019-02-27T14:12:03.861Z,23.92
2019-02-27T14:15:06.490Z,22.50
2019-02-27T14:18:08.983Z,22.02
2019-02-27T14:21:10.695Z,19.05
2019-02-27T14:24:12.251Z,20.77
2019-02-27T14:27:14.590Z,22.82
2019-02-27T14:30:24.481Z,21.02
2019-02-27T14:33:26.088Z,22.62
2019-02-27T14:36:27.580Z,20.65
2019-02-27T14:39:29.643Z,21.52
2019-02-27T14:42:33.525Z,21.45
2019-02-27T14:45:39.732Z,21.48
2019-02-27T14:48:39.150Z,17.25
2019-02-27T14:51:41.707Z,21.10
2019-02-27T14:54:43.366Z,19.40
2019-02-27T14:57:49.919Z,17.87
2019-02-27T15:00:48.446Z,20.50
2019-02-27T15:03:50.112Z,19.85
2019-02-27T15:06:51.885Z,21.80
2019-02-27T15:09:53.425Z,18.52
2019-02-27T15:12:55.663Z,17.65
2019-02-27T15:15:57.420Z,26.68
2019-02-27T15:18:59.705Z,20.25
2019-02-27T15:22:01.442Z,20.70
2019-02-27T15:25:07.917Z,19.27
2019-02-27T15:28:07.016Z,20.02
2019-02-27T15:31:09.145Z,18.65
2019-02-27T15:34:13.672Z,16.55
2019-02-27T15:37:15.602Z,20.08
2019-02-27T15:40:20.032Z,20.37
2019-02-27T15:43:21.887Z,19.35
2019-02-27T15:46:25.045Z,19.07
2019-02-27T15:49:26.624Z,20.88
2019-02-27T15:52:28.179Z,19.20
2019-02-27T15:55:34.180Z,18.62
2019-02-27T15:58:35.880Z,18.95
2019-02-27T16:01:38.504Z,19.17
2019-02-27T16:04:41.083Z,20.60
2019-02-27T16:07:48.474Z,19.10
2019-02-27T16:10:54.581Z,20.80
2019-02-27T16:13:52.184Z,23.00
2019-02-27T16:16:54.204Z,22.13
2019-02-27T16:19:57.244Z,22.13
2019-02-27T16:23:04.256Z,21.35
2019-02-27T16:26:03.730Z,25.20
2019-02-27T16:29:05.412Z,21.20
2019-02-27T16:32:07.016Z,20.05
2019-02-27T16:35:09.171Z,18.30
2019-02-27T16:38:13.043Z,22.10
2019-02-27T16:41:16.279Z,16.80
2019-02-27T16:44:21.672Z,18.15
2019-02-27T16:47:23.586Z,20.77
2019-02-27T16:50:27.369Z,20.65
2019-02-27T16:53:28.252Z,16.82
2019-02-27T16:56:29.739Z,16.42
2019-02-27T16:59:31.287Z,15.93
2019-02-27T17:02:35.477Z,16.82
2019-02-27T17:05:36.920Z,11.20
2019-02-27T17:08:38.828Z,12.93
2019-02-27T17:11:40.735Z,10.23
2019-02-27T17:14:43.286Z,12.63
2019-02-27T17:17:45.149Z,13.28
2019-02-27T17:20:47.359Z,9.25
2019-02-27T17:23:48.967Z,9.45
2019-02-27T17:26:50.472Z,7.33
2019-02-27T17:29:52.015Z,12.98
2019-02-27T17:32:54.593Z,12.53
2019-02-27T17:35:59.244Z,8.10
2019-02-27T17:38:59.905Z,10.32
2019-02-27T17:42:01.443Z,7.30
2019-02-27T17:45:02.955Z,11.50
2019-02-27T17:48:05.046Z,12.65
2019-02-27T17:51:06.742Z,8.88
2019-02-27T17:54:08.194Z,9.43
2019-02-27T17:57:09.706Z,10.00
2019-02-27T18:00:21.714Z,19.15
2019-02-27T18:03:24.965Z,8.18
2019-02-27T18:06:26.545Z,7.78
2019-02-27T18:09:28.106Z,11.05
2019-02-27T18:12:30.081Z,11.28
2019-02-27T18:15:31.666Z,14.80
2019-02-27T18:18:33.271Z,11.43
2019-02-27T18:21:35.099Z,17.23
2019-02-27T18:24:36.694Z,15.10
2019-02-27T18:27:38.254Z,12.33
2019-02-27T18:30:39.906Z,8.30
2019-02-27T18:33:41.936Z,10.30
2019-02-27T18:36:46.366Z,8.23
2019-02-27T18:39:59.960Z,9.78
2019-02-27T18:43:03.597Z,9.80
2019-02-27T18:46:06.091Z,7.80
2019-02-27T18:49:07.767Z,8.70
2019-02-27T18:52:09.522Z,7.42
2019-02-27T18:55:13.781Z,8.90
2019-02-27T18:58:18.243Z,7.90
2019-02-27T19:01:19.324Z,6.85
2019-02-27T19:04:21.117Z,6.70
2019-02-27T19:07:22.794Z,8.98
2019-02-27T19:10:24.969Z,11.48
2019-02-27T19:13:26.609Z,8.75
2019-02-27T19:16:28.380Z,6.25
2019-02-27T19:19:31.525Z,10.40
2019-02-27T19:22:33.577Z,8.90
2019-02-27T19:25:37.292Z,9.28
2019-02-27T19:28:38.470Z,8.83
2019-02-27T19:31:40.170Z,7.70
2019-02-27T19:34:44.451Z,10.28
2019-02-27T19:37:45.544Z,8.20
2019-02-27T19:40:47.207Z,7.40
2019-02-27T19:43:48.817Z,9.88
2019-02-27T19:46:50.685Z,8.38
2019-02-27T19:49:52.415Z,7.25
2019-02-27T19:52:54.537Z,9.80
2019-02-27T19:56:00.672Z,9.05
2019-02-27T19:58:59.740Z,5.62
2019-02-27T20:02:01.914Z,7.58
2019-02-27T20:05:03.888Z,7.95
2019-02-27T20:08:09.818Z,7.75
2019-02-27T20:11:09.704Z,7.22
2019-02-27T20:14:11.347Z,8.15
2019-02-27T20:17:13.092Z,10.35
2019-02-27T20:20:15.812Z,7.37
2019-02-27T20:23:17.510Z,9.60
2019-02-27T20:26:21.030Z,7.50
2019-02-27T20:29:23.057Z,7.55
2019-02-27T20:32:28.379Z,11.45
2019-02-27T20:35:28.870Z,6.30
2019-02-27T20:42:03.985Z,9.20
2019-02-27T20:45:08.640Z,6.83
2019-02-27T20:48:10.089Z,6.15
2019-02-27T20:51:11.946Z,9.85
2019-02-27T20:54:13.613Z,8.48
2019-02-27T20:57:15.258Z,6.87
2019-02-27T21:00:17.613Z,6.37
2019-02-27T21:03:19.238Z,7.40
2019-02-27T21:06:21.118Z,7.25
2019-02-27T21:09:22.733Z,6.45
2019-02-27T21:12:24.342Z,8.78
2019-02-27T21:15:29.337Z,9.45
2019-02-27T21:18:32.594Z,7.75
2019-02-27T21:21:33.391Z,8.98
2019-02-27T21:24:37.309Z,6.22
2019-02-27T21:27:38.142Z,9.28
2019-02-27T21:30:39.722Z,7.10
2019-02-27T21:33:42.376Z,6.25
2019-02-27T21:36:44.878Z,5.22
2019-02-27T21:39:46.357Z,6.17
2019-02-27T21:42:50.882Z,6.65
2019-02-27T21:45:51.063Z,6.28
2019-02-27T21:48:52.567Z,6.75
2019-02-27T21:51:54.197Z,7.42
2019-02-27T21:54:55.762Z,6.47
2019-02-27T21:57:58.151Z,6.22
2019-02-27T22:01:00.423Z,6.58
2019-02-27T22:04:01.967Z,6.20
2019-02-27T22:07:05.037Z,6.45
2019-02-27T22:10:09.160Z,6.92
2019-02-27T22:13:10.936Z,7.35
2019-02-27T22:16:12.429Z,6.78
2019-02-27T22:19:13.899Z,8.83
2019-02-27T22:22:15.349Z,5.97
2019-02-27T22:25:17.232Z,6.25
2019-02-27T22:28:20.026Z,6.25
2019-02-27T22:31:22.144Z,5.55
2019-02-27T22:34:23.638Z,6.67
2019-02-27T22:37:25.122Z,6.95
2019-02-27T22:40:28.113Z,5.92
2019-02-27T22:43:29.596Z,5.60
2019-02-27T22:46:31.253Z,5.53
2019-02-27T22:49:32.899Z,7.03
2019-02-27T22:52:34.333Z,4.87
2019-02-27T22:55:36.418Z,6.22
2019-02-27T22:58:37.957Z,7.05
2019-02-27T23:01:50.433Z,6.92
2019-02-27T23:04:51.062Z,6.80
2019-02-27T23:07:52.917Z,6.58
2019-02-27T23:10:54.393Z,5.15
2019-02-27T23:13:55.845Z,6.20
2019-02-27T23:17:00.636Z,6.33
2019-02-27T23:20:00.551Z,4.95
2019-02-27T23:23:03.313Z,5.80
2019-02-27T23:26:04.946Z,5.60
2019-02-27T23:29:06.542Z,5.05
2019-02-27T23:32:07.975Z,4.83
2019-02-27T23:35:09.563Z,5.50
2019-02-27T23:38:11.370Z,6.25
2019-02-27T23:41:13.159Z,5.80
2019-02-27T23:44:14.562Z,7.37
2019-02-27T23:47:15.995Z,6.50
2019-02-27T23:50:17.409Z,6.40
2019-02-27T23:53:18.826Z,5.17
2019-02-27T23:56:21.211Z,6.08
2019-02-27T23:59:22.596Z,5.05
